Time;durP1;ratioP1;P1;durP2;ratioP2;P2;SDS_P1;SDS_P2;PMS_P1;PMS_P2;Temp;Humidity;BMP_temperature;BMP_pressure;BME280_temperature;BME280_humidity;BME280_pressure;Samples;Min_cycle;Max_cycle;Signal;HPM_P1;HPM_P2
2022/12/28 00:00:23;;;;;;;8.97;3.60;;;;;;;5.37;99.71;101736.09;4960391;28;20235;-72
2022/12/28 00:02:48;;;;;;;7.23;3.53;;;;;;;5.41;99.20;101733.84;4962953;28;20204;-72
2022/12/28 00:05:13;;;;;;;6.20;3.17;;;;;;;5.36;99.25;101726.75;4962870;28;20288;-71
2022/12/28 00:07:39;;;;;;;7.47;3.73;;;;;;;5.42;99.28;101733.03;4961484;28;20208;-71
2022/12/28 00:10:05;;;;;;;8.33;2.97;;;;;;;5.48;98.15;101728.28;4962262;28;20220;-71
2022/12/28 00:12:31;;;;;;;8.63;3.03;;;;;;;5.47;98.08;101728.19;4967103;28;20192;-71
2022/12/28 00:14:58;;;;;;;5.63;3.00;;;;;;;5.48;97.64;101724.88;4971905;28;20204;-72
2022/12/28 00:17:23;;;;;;;7.00;2.97;;;;;;;5.45;97.86;101710.34;4966109;28;20705;-72
2022/12/28 00:19:49;;;;;;;6.90;3.17;;;;;;;5.49;97.69;101708.84;4969959;28;20220;-72
2022/12/28 00:22:14;;;;;;;6.03;2.40;;;;;;;5.45;97.71;101692.59;4967650;28;20196;-71
2022/12/28 00:24:40;;;;;;;7.63;2.80;;;;;;;5.49;97.07;101693.59;4961228;28;20225;-71
2022/12/28 00:27:05;;;;;;;7.00;2.93;;;;;;;5.52;96.72;101702.25;4964094;28;20271;-71
2022/12/28 00:29:31;;;;;;;4.97;2.20;;;;;;;5.52;96.58;101689.56;4970262;28;20216;-71
2022/12/28 00:31:57;;;;;;;7.07;2.50;;;;;;;5.55;96.30;101687.19;4970045;28;20698;-70
2022/12/28 00:34:23;;;;;;;7.27;2.43;;;;;;;5.54;95.63;101682.91;4968910;28;20188;-70
2022/12/28 00:36:52;;;;;;;8.13;2.50;;;;;;;5.56;95.68;101683.84;4964303;28;20574;-73
2022/12/28 00:39:19;;;;;;;6.13;2.20;;;;;;;5.58;95.47;101686.47;4955098;28;20225;-72
2022/12/28 00:41:44;;;;;;;4.93;2.50;;;;;;;5.58;95.20;101669.53;4969933;28;20192;-72
2022/12/28 00:44:10;;;;;;;7.70;2.20;;;;;;;5.61;95.18;101666.31;4971610;28;20563;-71
2022/12/28 00:46:35;;;;;;;4.67;1.90;;;;;;;5.59;94.92;101661.16;4969627;28;20243;-72
2022/12/28 00:49:00;;;;;;;8.10;2.80;;;;;;;5.58;95.35;101658.53;4971371;28;20603;-72
2022/12/28 00:51:26;;;;;;;7.23;2.43;;;;;;;5.59;94.82;101653.53;4970645;28;20196;-71
2022/12/28 00:53:52;;;;;;;5.33;2.10;;;;;;;5.56;94.96;101645.75;4969591;28;20207;-71
2022/12/28 00:56:19;;;;;;;6.30;2.07;;;;;;;5.58;94.67;101648.38;4961142;28;20303;-71
2022/12/28 00:58:46;;;;;;;4.97;1.90;;;;;;;5.54;94.43;101636.31;4960435;28;20410;-71
2022/12/28 01:01:18;;;;;;;6.93;1.83;;;;;;;5.54;94.70;101646.47;4965243;28;20834;-71
2022/12/28 01:03:44;;;;;;;6.60;1.70;;;;;;;5.53;94.67;101634.56;4962057;28;20271;-71
2022/12/28 01:06:16;;;;;;;3.47;1.90;;;;;;;5.56;94.54;101633.06;4971664;28;20287;-71
2022/12/28 01:08:42;;;;;;;9.60;2.10;;;;;;;5.54;94.59;101627.03;4966300;28;20220;-71
2022/12/28 01:11:14;;;;;;;4.57;1.63;;;;;;;5.55;93.44;101628.78;4971170;28;20738;-71
2022/12/28 01:13:40;;;;;;;5.83;1.73;;;;;;;5.55;94.03;101621.16;4969659;28;20196;-71
2022/12/28 01:16:15;;;;;;;4.90;1.90;;;;;;;5.48;93.90;101614.00;4964635;28;20331;-71
2022/12/28 01:18:40;;;;;;;4.73;1.83;;;;;;;5.51;93.36;101608.19;4962009;28;20221;-71
2022/12/28 01:21:11;;;;;;;6.73;1.87;;;;;;;5.48;93.12;101606.38;4958892;28;20300;-72
2022/12/28 01:23:36;;;;;;;4.83;2.20;;;;;;;5.51;93.18;101603.13;4960164;28;20254;-71
2022/12/28 01:26:04;;;;;;;5.03;1.63;;;;;;;5.46;92.78;101596.94;4959553;28;20184;-72
2022/12/28 01:28:29;;;;;;;5.70;2.17;;;;;;;5.44;92.54;101588.38;4966150;28;20215;-71
2022/12/28 01:30:55;;;;;;;5.47;2.13;;;;;;;5.41;92.62;101576.41;4962691;28;20225;-71
2022/12/28 01:33:20;;;;;;;6.00;1.87;;;;;;;5.41;92.53;101580.59;4971108;28;20637;-71
2022/12/28 01:35:46;;;;;;;4.97;1.70;;;;;;;5.39;91.87;101572.88;4961989;28;20221;-71
2022/12/28 01:38:11;;;;;;;3.93;2.00;;;;;;;5.38;92.27;101555.91;4963860;28;20196;-71
2022/12/28 01:40:41;;;;;;;6.60;2.03;;;;;;;5.39;91.58;101556.81;4954934;28;20541;-72
2022/12/28 01:43:12;;;;;;;5.03;1.90;;;;;;;5.35;91.72;101544.75;4966997;28;20230;-72
2022/12/28 01:45:39;;;;;;;6.10;1.67;;;;;;;5.35;91.77;101548.13;4956022;28;20272;-71
2022/12/28 01:48:15;;;;;;;6.97;1.60;;;;;;;5.30;91.81;101544.50;4966373;28;20197;-72
2022/12/28 01:50:42;;;;;;;3.63;1.73;;;;;;;5.26;92.53;101534.13;4970020;28;20192;-71
2022/12/28 01:53:07;;;;;;;5.93;1.47;;;;;;;5.30;91.90;101534.34;4962492;28;20200;-71
2022/12/28 01:55:35;;;;;;;4.13;1.70;;;;;;;5.31;91.83;101517.44;4969216;28;20207;-71
2022/12/28 01:58:10;;;;;;;6.23;1.60;;;;;;;5.31;91.43;101513.25;4966379;28;20232;-71
2022/12/28 02:00:35;;;;;;;7.57;1.50;;;;;;;5.35;91.24;101511.75;4965253;28;20196;-70
2022/12/28 02:03:20;;;;;;;5.27;1.80;;;;;;;5.36;90.81;101498.25;4961930;28;20264;-71
2022/12/28 02:05:50;;;;;;;6.10;1.73;;;;;;;5.34;91.56;101500.69;4960840;28;20188;-71
2022/12/28 02:08:27;;;;;;;4.97;1.40;;;;;;;5.36;91.08;101494.06;4963124;28;20197;-70
2022/12/28 02:10:53;;;;;;;11.40;2.00;;;;;;;5.39;90.87;101500.94;4973068;28;20685;-71
2022/12/28 02:13:21;;;;;;;4.33;1.40;;;;;;;5.40;90.65;101493.41;4971832;28;20204;-71
2022/12/28 02:15:47;;;;;;;4.30;1.40;;;;;;;5.38;91.22;101483.97;4971718;28;20772;-71
2022/12/28 02:18:15;;;;;;;5.40;1.70;;;;;;;5.36;91.10;101488.97;4972909;28;20276;-73
2022/12/28 02:20:50;;;;;;;3.13;1.67;;;;;;;5.36;90.83;101473.75;4965969;28;20665;-70
2022/12/28 02:23:32;;;;;;;4.30;1.83;;;;;;;5.38;90.34;101478.91;4970813;28;20191;-72
2022/12/28 02:26:34;;;;;;;6.33;1.60;;;;;;;5.40;90.37;101482.38;4969247;28;20192;-72
2022/12/28 02:29:15;;;;;;;6.37;1.90;;;;;;;5.37;90.48;101493.25;4971461;28;20215;-73
2022/12/28 02:31:46;;;;;;;6.00;1.63;;;;;;;5.41;90.02;101472.28;4974014;28;20199;-71
2022/12/28 02:34:24;;;;;;;7.73;1.70;;;;;;;5.42;89.98;101474.03;4966591;28;20192;-71
2022/12/28 02:36:57;;;;;;;7.97;2.03;;;;;;;5.40;90.67;101469.69;4971613;28;20212;-72
2022/12/28 02:39:31;;;;;;;4.80;1.70;;;;;;;5.39;90.01;101478.09;4967515;28;20212;-72
2022/12/28 02:41:58;;;;;;;6.10;1.53;;;;;;;5.38;90.65;101478.91;4964135;28;20196;-71
2022/12/28 02:50:06;;;;;;;5.40;1.57;;;;;;;5.37;90.45;101446.66;4973785;28;20224;-72
2022/12/28 02:53:15;;;;;;;5.70;1.30;;;;;;;5.37;90.48;101449.19;4974571;28;21093;-71
2022/12/28 02:56:19;;;;;;;5.50;1.43;;;;;;;5.35;90.48;101444.03;4965944;28;20219;-72
2022/12/28 02:59:23;;;;;;;3.67;1.60;;;;;;;5.33;90.56;101432.06;4929600;29;20675;-71
2022/12/28 03:02:12;;;;;;;5.13;1.50;;;;;;;5.30;90.76;101437.03;4923251;29;20281;-71
2022/12/28 03:04:52;;;;;;;4.70;1.80;;;;;;;5.27;91.28;101432.66;4976753;28;20243;-71
2022/12/28 03:10:54;;;;;;;3.60;1.60;;;;;;;5.24;91.63;101422.34;4971852;28;20936;-71
2022/12/28 03:13:55;;;;;;;3.70;1.60;;;;;;;5.20;91.74;101407.75;4940962;29;20205;-71
2022/12/28 03:25:41;;;;;;;3.67;1.93;;;;;;;5.19;92.55;101407.66;4972152;28;20235;-70
2022/12/28 03:33:22;;;;;;;6.70;1.80;;;;;;;5.10;94.04;101395.41;4957503;28;20212;-71
2022/12/28 03:36:02;;;;;;;5.17;1.73;;;;;;;5.07;93.70;101382.56;4972025;28;20240;-72
2022/12/28 03:38:54;;;;;;;6.60;2.03;;;;;;;5.09;93.56;101369.94;4973532;28;20584;-71
2022/12/28 03:41:29;;;;;;;3.27;1.50;;;;;;;5.06;93.79;101372.34;4963728;28;20204;-72
2022/12/28 03:44:14;;;;;;;3.77;1.40;;;;;;;5.06;94.27;101359.66;4949390;28;20190;-71
2022/12/28 03:47:00;;;;;;;5.10;1.70;;;;;;;5.02;94.97;101348.47;4960720;28;20755;-72
2022/12/28 03:49:27;;;;;;;7.20;1.80;;;;;;;4.99;94.74;101350.00;4965107;28;20307;-71
2022/12/28 03:51:54;;;;;;;6.17;2.13;;;;;;;4.98;95.27;101341.50;4945326;28;20234;-71
2022/12/28 03:54:20;;;;;;;7.00;1.90;;;;;;;4.98;95.89;101338.13;4949871;28;20204;-71
2022/12/28 03:56:48;;;;;;;7.87;1.93;;;;;;;4.92;96.95;101341.22;4952342;28;20220;-71
2022/12/28 03:59:14;;;;;;;2.87;1.60;;;;;;;4.90;96.84;101334.31;4977280;28;20207;-72
2022/12/28 04:01:43;;;;;;;4.00;1.97;;;;;;;4.91;97.51;101325.91;4974521;28;20189;-72
2022/12/28 04:04:09;;;;;;;4.17;2.17;;;;;;;4.87;97.74;101322.34;4970513;28;20626;-71
2022/12/28 04:06:35;;;;;;;8.33;1.90;;;;;;;4.82;98.49;101321.25;4970580;28;20653;-71
2022/12/28 04:09:02;;;;;;;6.07;2.03;;;;;;;4.80;99.13;101307.66;4967912;28;20240;-71
2022/12/28 04:11:32;;;;;;;6.83;1.87;;;;;;;4.80;98.82;101297.50;4975493;28;20245;-71
2022/12/28 04:13:58;;;;;;;7.73;1.97;;;;;;;4.78;99.47;101293.16;4969619;28;20666;-72
2022/12/28 04:16:27;;;;;;;5.63;2.13;;;;;;;4.78;99.85;101291.47;4971324;28;20630;-72
2022/12/28 04:18:53;;;;;;;7.60;2.03;;;;;;;4.74;100.00;101284.50;4954703;28;20282;-71
2022/12/28 04:21:20;;;;;;;4.77;2.20;;;;;;;4.76;100.00;101282.03;4954805;28;20678;-71
2022/12/28 04:23:46;;;;;;;5.90;2.13;;;;;;;4.73;100.00;101285.31;4955050;28;20470;-71
2022/12/28 04:26:30;;;;;;;6.80;2.00;;;;;;;4.70;100.00;101272.47;4949367;28;20263;-71
2022/12/28 04:29:00;;;;;;;5.30;2.00;;;;;;;4.68;100.00;101268.09;4955764;28;20315;-70
2022/12/28 04:31:52;;;;;;;5.77;2.13;;;;;;;4.67;100.00;101261.31;4964834;28;20189;-71
2022/12/28 04:34:19;;;;;;;7.13;2.30;;;;;;;4.63;100.00;101257.75;4971042;28;20224;-71
2022/12/28 04:36:52;;;;;;;7.93;2.27;;;;;;;4.63;100.00;101252.69;4953025;28;20291;-71
2022/12/28 04:39:20;;;;;;;6.90;2.40;;;;;;;4.65;100.00;101248.53;4950325;28;20216;-71
2022/12/28 04:41:45;;;;;;;6.63;2.33;;;;;;;4.65;100.00;101233.31;4964213;28;20196;-71
2022/12/28 04:44:10;;;;;;;4.77;2.20;;;;;;;4.65;100.00;101224.88;4972036;28;20192;-72
2022/12/28 04:46:36;;;;;;;7.30;2.37;;;;;;;4.66;100.00;101216.47;4972038;28;20250;-71
2022/12/28 04:49:02;;;;;;;8.07;3.23;;;;;;;4.68;100.00;101204.72;4969526;28;20217;-71
2022/12/28 04:51:28;;;;;;;4.13;2.27;;;;;;;4.64;100.00;101201.16;4967180;28;20215;-71
2022/12/28 04:53:55;;;;;;;8.57;2.40;;;;;;;4.65;100.00;101199.50;4973666;28;20204;-72
2022/12/28 04:56:22;;;;;;;7.33;2.23;;;;;;;4.65;100.00;101189.38;4981866;28;20299;-72
2022/12/28 04:58:48;;;;;;;10.50;2.73;;;;;;;4.67;100.00;101187.75;4972430;28;20593;-72
2022/12/28 05:01:16;;;;;;;7.87;2.50;;;;;;;4.67;100.00;101185.22;4965816;28;20192;-72
2022/12/28 05:03:43;;;;;;;8.27;2.93;;;;;;;4.66;100.00;101186.03;4967696;28;20207;-72
2022/12/28 05:06:14;;;;;;;6.17;2.50;;;;;;;4.67;100.00;101175.09;4966430;28;20204;-72
2022/12/28 05:08:40;;;;;;;9.27;2.70;;;;;;;4.66;100.00;101174.22;4959067;28;20221;-73
2022/12/28 05:11:12;;;;;;;5.67;2.33;;;;;;;4.67;100.00;101162.41;4970102;28;20229;-72
2022/12/28 05:13:38;;;;;;;4.07;2.23;;;;;;;4.65;100.00;101162.31;4954239;28;20673;-72
2022/12/28 05:16:06;;;;;;;4.40;2.30;;;;;;;4.67;100.00;101160.75;4968680;28;20200;-72
2022/12/28 05:18:32;;;;;;;7.80;2.50;;;;;;;4.68;100.00;101152.34;4964397;28;20269;-72
2022/12/28 05:21:05;;;;;;;4.80;2.47;;;;;;;4.69;100.00;101151.53;4969284;28;20279;-71
2022/12/28 05:23:32;;;;;;;7.07;2.60;;;;;;;4.68;100.00;101147.25;4968422;28;20228;-72
2022/12/28 05:25:58;;;;;;;6.93;2.50;;;;;;;4.68;100.00;101134.59;4954129;28;20199;-72
2022/12/28 05:28:24;;;;;;;6.20;3.03;;;;;;;4.65;100.00;101131.91;4957541;28;20189;-71
2022/12/28 05:30:51;;;;;;;7.23;2.87;;;;;;;4.64;100.00;101135.22;4973576;28;20283;-71
2022/12/28 05:33:16;;;;;;;10.07;2.97;;;;;;;4.65;100.00;101121.75;4965310;28;20252;-72
2022/12/28 05:35:42;;;;;;;8.27;3.27;;;;;;;4.65;100.00;101113.28;4963922;28;20721;-71
2022/12/28 05:38:07;;;;;;;7.00;2.50;;;;;;;4.63;100.00;101110.69;4971021;28;20218;-71
2022/12/28 05:40:33;;;;;;;9.33;3.30;;;;;;;4.62;100.00;101103.88;4953313;28;20716;-71
2022/12/28 05:42:59;;;;;;;11.90;3.53;;;;;;;4.61;100.00;101114.78;4968397;28;20653;-70
2022/12/28 05:45:24;;;;;;;7.53;3.27;;;;;;;4.64;100.00;101107.34;4969033;28;20184;-70
2022/12/28 05:47:50;;;;;;;6.43;2.90;;;;;;;4.64;100.00;101111.53;4963446;28;20228;-71
2022/12/28 05:50:15;;;;;;;6.33;3.00;;;;;;;4.65;100.00;101095.56;4959078;28;20220;-71
2022/12/28 05:52:41;;;;;;;8.10;3.67;;;;;;;4.67;100.00;101101.53;4977069;28;20191;-71
2022/12/28 05:55:06;;;;;;;7.70;3.97;;;;;;;4.68;100.00;101091.47;4967929;28;20685;-71
2022/12/28 05:57:32;;;;;;;8.77;3.50;;;;;;;4.69;100.00;101088.13;4970579;28;20208;-71
2022/12/28 05:59:57;;;;;;;5.90;3.83;;;;;;;4.72;100.00;101095.00;4965738;28;20270;-71
2022/12/28 06:02:26;;;;;;;9.47;3.60;;;;;;;4.72;100.00;101097.56;4971689;28;20244;-71
2022/12/28 06:04:52;;;;;;;10.37;3.87;;;;;;;4.71;100.00;101091.63;4968653;28;20196;-71
2022/12/28 06:07:18;;;;;;;8.57;3.83;;;;;;;4.72;100.00;101082.34;4970952;28;20246;-71
2022/12/28 06:09:43;;;;;;;7.73;3.73;;;;;;;4.73;100.00;101072.28;4976042;28;20295;-71
2022/12/28 06:12:09;;;;;;;9.97;3.93;;;;;;;4.74;100.00;101078.22;4968276;28;20196;-71
2022/12/28 06:14:34;;;;;;;6.27;3.60;;;;;;;4.75;100.00;101083.34;4975867;28;20196;-71
2022/12/28 06:17:00;;;;;;;7.90;4.00;;;;;;;4.76;100.00;101067.34;4973354;28;20236;-72
2022/12/28 06:19:25;;;;;;;6.70;3.70;;;;;;;4.76;100.00;101058.84;4971722;28;20218;-71
2022/12/28 06:21:50;;;;;;;7.00;4.20;;;;;;;4.77;100.00;101055.50;4977075;28;20287;-72
2022/12/28 06:24:17;;;;;;;8.17;4.20;;;;;;;4.77;100.00;101055.50;4984249;28;20272;-71
2022/12/28 06:26:43;;;;;;;7.13;4.03;;;;;;;4.78;100.00;101052.22;4985832;28;20233;-71
2022/12/28 06:29:09;;;;;;;6.53;3.80;;;;;;;4.80;100.00;101032.84;4983090;28;20220;-71
2022/12/28 06:31:38;;;;;;;6.40;3.80;;;;;;;4.83;100.00;101040.59;4977612;28;20231;-72
2022/12/28 06:34:05;;;;;;;7.37;4.10;;;;;;;4.84;100.00;101040.63;4973977;28;20227;-72
2022/12/28 06:36:31;;;;;;;9.37;4.00;;;;;;;4.87;100.00;101020.50;4971496;28;20212;-71
2022/12/28 06:38:58;;;;;;;6.90;4.00;;;;;;;4.90;100.00;101012.16;4977306;28;20230;-72
2022/12/28 06:41:25;;;;;;;7.87;4.00;;;;;;;4.92;100.00;101015.66;4984625;28;20196;-72
2022/12/28 06:43:51;;;;;;;6.20;3.90;;;;;;;4.95;100.00;101006.50;4980106;28;20192;-72
2022/12/28 06:46:18;;;;;;;5.20;3.80;;;;;;;4.95;100.00;101006.50;4977085;28;20199;-72
2022/12/28 06:48:44;;;;;;;8.80;3.50;;;;;;;4.96;100.00;101003.16;4969393;28;20216;-71
2022/12/28 06:51:15;;;;;;;6.63;3.90;;;;;;;4.98;100.00;101000.69;4978997;28;20662;-71
2022/12/28 06:53:41;;;;;;;6.40;4.07;;;;;;;4.99;100.00;100995.69;4984673;28;20553;-71
2022/12/28 06:56:17;;;;;;;7.97;3.87;;;;;;;5.00;100.00;100983.84;4974046;28;20660;-71
2022/12/28 06:58:44;;;;;;;7.50;4.23;;;;;;;5.00;100.00;100984.72;4972559;28;20307;-71
2022/12/28 07:01:09;;;;;;;6.37;4.03;;;;;;;5.05;100.00;100984.91;4969036;28;20218;-71
2022/12/28 07:03:35;;;;;;;7.17;4.60;;;;;;;5.08;100.00;100967.28;4976471;28;20317;-71
2022/12/28 07:06:02;;;;;;;8.13;4.40;;;;;;;5.11;100.00;100975.03;4976328;28;20243;-71
2022/12/28 07:08:28;;;;;;;5.33;3.90;;;;;;;5.17;100.00;100971.09;4969997;28;20223;-71
2022/12/28 07:10:54;;;;;;;5.40;3.67;;;;;;;5.22;100.00;100964.56;4968267;28;20193;-71
2022/12/28 07:13:20;;;;;;;7.20;4.07;;;;;;;5.24;100.00;100968.00;4974096;28;20263;-72
2022/12/28 07:15:45;;;;;;;6.50;3.70;;;;;;;5.28;100.00;100974.94;4972558;28;20219;-72
2022/12/28 07:18:10;;;;;;;4.93;3.90;;;;;;;5.32;100.00;100968.31;4972100;28;20203;-72
2022/12/28 07:20:36;;;;;;;5.57;3.80;;;;;;;5.33;100.00;100958.25;4973053;28;20216;-71
2022/12/28 07:23:01;;;;;;;8.00;4.63;;;;;;;5.37;100.00;100964.31;4972764;28;20197;-71
2022/12/28 07:25:27;;;;;;;4.80;3.37;;;;;;;5.41;100.00;100966.16;4970401;28;20192;-71
2022/12/28 07:27:52;;;;;;;6.00;3.30;;;;;;;5.45;100.00;100958.75;4969801;28;20196;-71
2022/12/28 07:30:18;;;;;;;4.73;3.20;;;;;;;5.47;100.00;100949.53;4973177;28;20309;-70
2022/12/28 07:32:43;;;;;;;4.30;3.00;;;;;;;5.54;100.00;100963.34;4968737;28;20200;-70
2022/12/28 07:35:09;;;;;;;4.00;3.10;;;;;;;5.54;100.00;100954.06;4970904;28;20259;-70
2022/12/28 07:37:34;;;;;;;5.13;3.37;;;;;;;5.59;100.00;100950.03;4968710;28;20247;-70
2022/12/28 07:39:59;;;;;;;3.37;2.97;;;;;;;5.62;100.00;100950.13;4970075;28;20270;-71
2022/12/28 07:42:27;;;;;;;4.20;3.07;;;;;;;5.67;100.00;100951.19;4972630;28;20193;-71
2022/12/28 07:44:52;;;;;;;4.80;3.20;;;;;;;5.70;100.00;100947.91;4968685;28;20189;-70
2022/12/28 07:47:18;;;;;;;4.63;2.57;;;;;;;5.71;100.00;100945.41;4975322;28;20196;-71
2022/12/28 07:49:43;;;;;;;3.50;2.97;;;;;;;5.73;100.00;100950.56;4967782;28;20215;-70
2022/12/28 07:52:09;;;;;;;3.67;3.10;;;;;;;5.77;100.00;100939.72;4962987;28;20266;-70
2022/12/28 07:54:34;;;;;;;4.07;2.67;;;;;;;5.78;100.00;100947.41;4970536;28;20200;-71
2022/12/28 07:57:00;;;;;;;4.60;3.17;;;;;;;5.81;100.00;100944.16;4973270;28;20235;-71
2022/12/28 07:59:25;;;;;;;4.40;3.10;;;;;;;5.83;100.00;100947.63;4972849;28;20630;-70
2022/12/28 08:01:51;;;;;;;5.27;3.27;;;;;;;5.82;100.00;100941.69;4974693;28;20203;-71
2022/12/28 08:04:16;;;;;;;7.57;3.43;;;;;;;5.85;100.00;100939.25;4968469;28;20230;-71
2022/12/28 08:06:43;;;;;;;3.83;3.33;;;;;;;5.89;100.00;100937.72;4965746;28;20704;-70
2022/12/28 08:09:11;;;;;;;4.90;3.50;;;;;;;5.93;100.00;100945.50;4968455;28;20231;-70
2022/12/28 08:11:39;;;;;;;4.90;3.50;;;;;;;5.94;100.00;100941.31;4972583;28;20192;-70
2022/12/28 08:14:06;;;;;;;6.57;3.30;;;;;;;5.97;100.00;100937.19;4964930;28;20219;-71
2022/12/28 08:16:38;;;;;;;4.83;3.50;;;;;;;6.00;100.00;100942.41;4964407;28;20217;-73
2022/12/28 08:19:04;;;;;;;4.43;3.53;;;;;;;6.02;100.00;100943.31;4963144;28;20212;-72
2022/12/28 08:21:32;;;;;;;3.87;3.30;;;;;;;6.06;100.00;100935.03;4971246;28;20199;-72
2022/12/28 08:23:59;;;;;;;4.93;3.90;;;;;;;6.09;100.00;100932.59;4970260;28;20654;-71
2022/12/28 08:26:28;;;;;;;4.60;3.17;;;;;;;6.10;100.00;100931.78;4959068;28;20184;-71
2022/12/28 08:28:55;;;;;;;5.20;3.40;;;;;;;6.13;100.00;100931.88;4967276;28;20224;-72
2022/12/28 08:31:24;;;;;;;4.57;3.50;;;;;;;6.15;100.00;100932.81;4975436;28;20200;-72
2022/12/28 08:33:52;;;;;;;4.93;3.10;;;;;;;6.16;100.00;100932.00;4964574;28;20194;-72
2022/12/28 08:36:17;;;;;;;4.90;3.63;;;;;;;6.20;100.00;100928.78;4971309;28;20227;-72
2022/12/28 08:38:44;;;;;;;3.60;3.30;;;;;;;6.23;100.00;100928.91;4972218;28;20208;-72
2022/12/28 08:41:13;;;;;;;6.40;3.73;;;;;;;6.26;100.00;100948.50;4973767;28;20223;-72
2022/12/28 08:43:38;;;;;;;5.37;4.10;;;;;;;6.32;100.00;100928.38;4968151;28;20291;-73
2022/12/28 08:46:13;;;;;;;7.43;4.03;;;;;;;6.34;100.00;100929.28;4968426;28;20276;-72
2022/12/28 08:48:39;;;;;;;8.33;4.40;;;;;;;6.39;100.00;100925.22;4968152;28;20219;-72
2022/12/28 08:51:08;;;;;;;5.27;4.20;;;;;;;6.44;100.00;100916.97;4967135;28;20193;-72
2022/12/28 08:53:34;;;;;;;5.23;4.03;;;;;;;6.51;100.00;100918.06;4968505;28;20196;-72
2022/12/28 08:56:09;;;;;;;6.07;4.37;;;;;;;6.59;100.00;100922.59;4979143;28;20225;-72
2022/12/28 08:58:36;;;;;;;5.57;4.53;;;;;;;6.64;100.00;100915.16;4979297;28;20279;-72
2022/12/28 09:01:27;;;;;;;5.13;4.63;;;;;;;6.68;100.00;100924.63;4966337;28;20224;-72
2022/12/28 09:03:55;;;;;;;6.60;4.97;;;;;;;6.72;100.00;100922.25;4965056;28;20204;-72
2022/12/28 09:06:33;;;;;;;6.17;5.10;;;;;;;6.79;100.00;100924.22;4971590;28;20196;-72
2022/12/28 09:08:59;;;;;;;6.20;5.33;;;;;;;6.82;100.00;100926.00;4976822;28;20259;-71
2022/12/28 09:11:25;;;;;;;8.90;5.73;;;;;;;6.94;100.00;100928.94;4978846;28;20693;-72
2022/12/28 09:13:50;;;;;;;6.50;5.67;;;;;;;7.07;100.00;100919.25;4971618;28;20288;-72
2022/12/28 09:16:19;;;;;;;6.33;5.73;;;;;;;7.23;100.00;100916.41;4967241;28;20224;-73
2022/12/28 09:18:45;;;;;;;7.93;6.27;;;;;;;7.34;100.00;100910.00;4969135;28;20244;-73
2022/12/28 09:21:17;;;;;;;7.77;5.90;;;;;;;7.32;100.00;100926.06;4970759;28;20275;-71
2022/12/28 09:23:44;;;;;;;6.30;5.70;;;;;;;7.34;100.00;100916.78;4972386;28;20192;-71
2022/12/28 09:26:15;;;;;;;7.93;6.90;;;;;;;7.41;100.00;100929.75;4976105;28;20231;-72
2022/12/28 09:28:46;;;;;;;7.23;6.53;;;;;;;7.44;100.00;100924.78;4967231;28;20215;-72
2022/12/28 09:31:11;;;;;;;7.07;6.37;;;;;;;7.50;100.00;100924.97;4967531;28;20205;-71
2022/12/28 09:36:21;;;;;;;7.67;6.80;;;;;;;7.57;100.00;100918.38;4967882;28;20217;-72
2022/12/28 09:38:48;;;;;;;7.17;6.30;;;;;;;7.62;100.00;100920.28;4946828;28;20473;-72
2022/12/28 09:41:44;;;;;;;7.27;6.20;;;;;;;7.66;100.00;100917.00;4969456;28;20197;-72
2022/12/28 09:44:15;;;;;;;6.47;5.67;;;;;;;7.70;100.00;100921.38;4945597;28;20298;-71
2022/12/28 09:46:51;;;;;;;7.00;5.90;;;;;;;7.75;100.00;100912.22;4969822;28;20283;-71
2022/12/28 09:49:20;;;;;;;6.20;5.23;;;;;;;7.77;100.00;100919.88;4975106;28;20223;-72
2022/12/28 09:51:56;;;;;;;6.00;5.43;;;;;;;7.81;100.00;100917.50;4982911;28;20196;-72
2022/12/28 09:54:21;;;;;;;6.73;5.90;;;;;;;7.81;100.00;100906.41;4982642;28;20618;-72
2022/12/28 09:56:47;;;;;;;6.23;5.63;;;;;;;7.84;100.00;100912.47;4977374;28;20200;-71
2022/12/28 09:59:18;;;;;;;5.87;5.27;;;;;;;7.88;100.00;100914.31;4969579;28;20212;-71
2022/12/28 10:01:48;;;;;;;5.87;5.30;;;;;;;7.91;100.00;100905.88;4976058;28;20589;-70
2022/12/28 10:04:13;;;;;;;5.90;5.40;;;;;;;7.98;100.00;100920.56;4953338;28;20207;-71
2022/12/28 10:06:42;;;;;;;5.17;4.77;;;;;;;8.00;100.00;100904.50;4969599;28;20180;-70
2022/12/28 10:09:17;;;;;;;5.90;5.40;;;;;;;7.98;100.00;100908.69;4969172;28;20223;-71
2022/12/28 10:11:43;;;;;;;5.97;5.47;;;;;;;7.98;100.00;100901.03;4970066;28;20196;-72
2022/12/28 10:14:24;;;;;;;6.63;5.60;;;;;;;7.97;100.00;100906.09;4962506;28;20555;-71
2022/12/28 10:16:50;;;;;;;6.37;5.67;;;;;;;7.98;100.00;100905.25;4959857;28;20231;-72
2022/12/28 10:19:19;;;;;;;6.37;5.87;;;;;;;8.01;100.00;100903.66;4974439;28;20756;-70
2022/12/28 10:21:46;;;;;;;6.33;5.73;;;;;;;8.04;100.00;100901.22;4968368;28;20243;-72
2022/12/28 10:24:12;;;;;;;5.87;5.37;;;;;;;8.06;100.00;100897.00;4969801;28;20200;-71
2022/12/28 10:26:40;;;;;;;7.37;6.30;;;;;;;8.05;100.00;100902.94;4977011;28;20732;-71
2022/12/28 10:29:12;;;;;;;6.47;5.87;;;;;;;8.05;100.00;100905.50;4961476;28;20694;-72
2022/12/28 10:31:39;;;;;;;6.23;5.63;;;;;;;8.07;100.00;100906.38;4959588;28;20219;-71
2022/12/28 10:34:23;;;;;;;6.10;5.50;;;;;;;8.07;100.00;100900.44;4975842;28;20202;-72
2022/12/28 10:36:49;;;;;;;6.40;5.80;;;;;;;8.08;100.00;100891.97;4959212;28;20219;-71
2022/12/28 10:39:23;;;;;;;5.93;5.43;;;;;;;8.10;100.00;100891.19;4969126;28;20212;-71
2022/12/28 10:41:48;;;;;;;6.20;5.70;;;;;;;8.19;100.00;100888.03;4972484;28;20206;-72
2022/12/28 10:44:25;;;;;;;5.73;5.23;;;;;;;8.23;100.00;100903.53;4959066;28;20770;-71
2022/12/28 10:47:14;;;;;;;7.70;5.50;;;;;;;8.33;100.00;100895.31;4970882;28;20306;-71
2022/12/28 10:49:48;;;;;;;6.07;5.57;;;;;;;8.35;100.00;100891.13;4970090;28;20222;-71
2022/12/28 10:52:14;;;;;;;6.43;5.57;;;;;;;8.43;100.00;100887.09;4980055;28;20296;-71
2022/12/28 10:54:39;;;;;;;5.23;4.83;;;;;;;8.51;100.00;100882.19;4972834;28;20283;-71
2022/12/28 10:57:05;;;;;;;5.83;5.33;;;;;;;8.55;100.00;100889.13;4974890;28;20258;-72
2022/12/28 10:59:31;;;;;;;5.53;5.03;;;;;;;8.56;100.00;100884.06;4969104;28;20216;-72
2022/12/28 11:02:28;;;;;;;5.40;5.00;;;;;;;8.57;100.00;100890.91;4974062;28;20196;-72
2022/12/28 11:04:57;;;;;;;5.30;4.80;;;;;;;8.58;100.00;100894.31;4971702;28;20195;-72
2022/12/28 11:07:44;;;;;;;5.20;4.77;;;;;;;8.61;100.00;100897.81;4974107;28;20216;-71
2022/12/28 11:10:26;;;;;;;4.97;4.57;;;;;;;8.61;100.00;100889.31;4970224;28;20243;-72
2022/12/28 11:12:55;;;;;;;6.13;5.10;;;;;;;8.62;100.00;100886.78;4970276;28;20192;-71
2022/12/28 11:15:31;;;;;;;5.20;4.80;;;;;;;8.64;100.00;100882.59;4966120;28;20207;-71
2022/12/28 11:18:00;;;;;;;5.70;5.20;;;;;;;8.62;100.00;100879.13;4971153;28;20216;-72
2022/12/28 11:20:38;;;;;;;5.20;4.70;;;;;;;8.63;100.00;100883.44;4968891;28;20252;-72
2022/12/28 11:23:05;;;;;;;5.27;4.77;;;;;;;8.66;100.00;100891.16;4972737;28;20598;-72
2022/12/28 11:25:33;;;;;;;5.10;4.70;;;;;;;8.68;100.00;100891.19;4974426;28;20568;-73
2022/12/28 11:28:00;;;;;;;5.00;4.53;;;;;;;8.70;100.00;100880.22;4969545;28;20192;-72
2022/12/28 11:30:26;;;;;;;5.07;4.60;;;;;;;8.68;100.00;100889.53;4968227;28;20230;-72
2022/12/28 11:33:01;;;;;;;4.67;4.27;;;;;;;8.66;100.00;100888.59;4967695;28;20565;-71
2022/12/28 11:35:39;;;;;;;5.70;5.20;;;;;;;8.67;100.00;100880.13;4974621;28;20204;-72
2022/12/28 11:38:06;;;;;;;5.63;5.13;;;;;;;8.67;100.00;100879.28;4976154;28;20204;-72
2022/12/28 11:40:43;;;;;;;5.73;5.23;;;;;;;8.66;100.00;100880.94;4971378;28;20232;-72
2022/12/28 11:43:27;;;;;;;5.40;5.00;;;;;;;8.66;100.00;100870.72;4958444;28;20215;-73
2022/12/28 11:46:01;;;;;;;4.50;4.10;;;;;;;8.66;100.00;100873.28;4969857;28;20204;-72
2022/12/28 11:48:41;;;;;;;5.47;4.97;;;;;;;8.65;100.00;100875.78;4965927;28;20205;-73
2022/12/28 11:51:26;;;;;;;4.60;4.17;;;;;;;8.64;100.00;100872.41;4968392;28;20199;-73
2022/12/28 11:53:57;;;;;;;3.87;3.57;;;;;;;8.61;100.00;100871.47;4972366;28;20184;-72
2022/12/28 11:56:44;;;;;;;4.60;3.87;;;;;;;8.62;100.00;100862.97;4966756;28;20224;-72
2022/12/28 11:59:28;;;;;;;4.07;3.70;;;;;;;8.63;100.00;100872.34;4936367;28;20315;-75
2022/12/28 12:01:58;;;;;;;3.53;3.23;;;;;;;8.64;100.00;100866.41;4967581;28;20196;-74
2022/12/28 12:04:39;;;;;;;4.17;3.53;;;;;;;8.62;100.00;100861.25;4972624;28;20668;-74